Aviation Digital Data Service (ADDS)

Output produced by METARs form (2337 UTC 23 May 2022)
found at http://www.aviationweather.gov/metar/data/
 
MUSC 232300Z 2400/2424 VRB03KT 9000 FEW020 
     TEMPO 2400/2404 VRB10KT 5000 TSRA BKN020CB 
     BECMG 2413/2414 10012KT 
     TEMPO 2415/2424 VRB10KT 5000 TSRA SCT018CB BKN020
       
MUCU 232300Z 2400/2424 VRB03KT 9000 FEW020 BKN070 
     TEMPO 2400/2404 5000 RA BKN020 
     BECMG 2415/2417 17008KT 
     TEMPO 2418/2424 VRB10KT 5000 TSRA SCT018CB BKN020
       
MUHG 232300Z 2400/2424 09007KT 9000 FEW022 BKN024 
     TEMPO 2400/2406 5000 RA BKN020 
     BECMG 2412/2414 08012KT 
     TEMPO 2415/2424 VRB10KT 5000 TSRA SCT018CB BKN020
       
TAF MUGM 2323/2423 VRB06KT 9999 FEW030 BKN120 BKN250 QNH2995INS 
     BECMG 2401/2402 34006KT 9999 FEW030 BKN120 BKN250 QNH2993INS 
     BECMG 2413/2415 12012KT 9999 FEW030 BKN250 QNH2993INS 
     FM241800 13012KT 9999 VCSH SCT030CB BKN250 QNH2992INS T24/2411Z T31/2416Z
FN20069
       
MUCM 232300Z 2400/2424 VRB03KT 9000 SCT020 BKN080 
     TEMPO 2400/2404 5000 RA BKN020 
     BECMG 2412/2414 08012KT 
     TEMPO 2415/2424 VRB10KT 5000 TSRA SCT018CB BKN020
       
MUCF 231700Z 2318/2406 22008KT 9000 FEW020 BKN100 
     TEMPO 2318/2402 VRB10KT 5000 TSRA SCT018CB BKN020 
     BECMG 2403/2404 07005KT
       
MUCC 232300Z 2400/2424 09009KT 9000 SCT020 
     TEMPO 2400/2404 5000 RA BKN020 
     BECMG 2412/2414 09013KT 
     TEMPO 2418/2424 VRB10KT 5000 TSRA SCT018CB BKN020
       
MUHA 232300Z 2400/2424 VRB03KT 9000 SCT030 
     TEMPO 2400/2402 VRB10KT 3000 TSRA SCT020CB BKN025 
     BECMG 2412/2414 11010KT
       
MUVR 232300Z 2400/2424 09006KT 9000 FEW025 BKN100 
     TEMPO 2400/2406 VRB10KT 5000 TSRA SCT018CB BKN020 
     BECMG 2414/2416 10013KT 
     TEMPO 2418/2424 VRB10KT 5000 TSRA SCT018CB BKN020
       
MUPB 231700Z 2318/2418 11009KT 9000 SCT020 
     TEMPO 2318/2321 BKN060 
     TEMPO 2322/2406 VRB10KT 5000 TSRA SCT018CB BKN020 
     BECMG 2407/2409 11005KT 
     BECMG 2414/2416 15011KT BKN020
       
AMD MUNG 231900Z 2319/2406 10005KT 9000 SCT020 
     TEMPO 2319/2403 VRB10KT 5000 TS FEW012CB BKN015
       
MUSA 231700Z 2318/2418 09010KT 9000 SCT020 
     TEMPO 2322/2405 VRB10KT 5000 TSRA SCT018CB BKN020 
     BECMG 2406/2408 VRB03KT 
     BECMG 2412/2414 14010KT BKN020
       
MUMZ 231700Z 2318/2406 VRB03KT 9000 SCT020 BKN040 
     TEMPO 2318/2324 VRB10KT 5000 TSRA SCT018CB BKN020
       
MUCL 231700Z 2318/2406 11009KT 9000 SCT020 
     TEMPO 2318/2402 VRB10KT 5000 TSRA SCT018CB BKN020